sensor_id;sensor_type;location;lat;lon;timestamp;temperature;humidity
17421;DHT22;8828;48.800;9.540;2023-02-12T00:00:55;7.00;99.90
17421;DHT22;8828;48.800;9.540;2023-02-12T00:03:23;7.00;99.90
17421;DHT22;8828;48.800;9.540;2023-02-12T00:05:51;6.90;99.90
17421;DHT22;8828;48.800;9.540;2023-02-12T00:08:20;7.00;99.90
17421;DHT22;8828;48.800;9.540;2023-02-12T00:10:47;6.90;99.90
17421;DHT22;8828;48.800;9.540;2023-02-12T00:13:15;6.90;99.90
17421;DHT22;8828;48.800;9.540;2023-02-12T00:15:44;6.90;99.90
17421;DHT22;8828;48.800;9.540;2023-02-12T00:18:13;6.90;99.90
17421;DHT22;8828;48.800;9.540;2023-02-12T00:20:41;6.90;99.90
17421;DHT22;8828;48.800;9.540;2023-02-12T00:23:09;6.80;99.90
17421;DHT22;8828;48.800;9.540;2023-02-12T00:25:40;6.80;99.90
17421;DHT22;8828;48.800;9.540;2023-02-12T00:28:08;6.80;99.90
17421;DHT22;8828;48.800;9.540;2023-02-12T00:30:36;6.80;99.90
17421;DHT22;8828;48.800;9.540;2023-02-12T00:33:04;6.70;99.90
17421;DHT22;8828;48.800;9.540;2023-02-12T00:35:33;6.70;99.90
17421;DHT22;8828;48.800;9.540;2023-02-12T00:38:01;6.70;99.90
17421;DHT22;8828;48.800;9.540;2023-02-12T00:40:30;6.70;99.90
17421;DHT22;8828;48.800;9.540;2023-02-12T00:42:58;6.70;99.90
17421;DHT22;8828;48.800;9.540;2023-02-12T00:45:26;6.70;99.90
17421;DHT22;8828;48.800;9.540;2023-02-12T00:47:54;6.70;99.90
17421;DHT22;8828;48.800;9.540;2023-02-12T00:50:22;6.70;99.90
17421;DHT22;8828;48.800;9.540;2023-02-12T00:52:51;6.70;99.90
17421;DHT22;8828;48.800;9.540;2023-02-12T00:55:19;6.70;99.90
17421;DHT22;8828;48.800;9.540;2023-02-12T00:57:47;6.70;99.90
17421;DHT22;8828;48.800;9.540;2023-02-12T01:00:15;6.70;99.90
17421;DHT22;8828;48.800;9.540;2023-02-12T01:02:43;6.80;99.90
17421;DHT22;8828;48.800;9.540;2023-02-12T01:05:12;6.80;99.90
17421;DHT22;8828;48.800;9.540;2023-02-12T01:07:41;6.80;99.90
17421;DHT22;8828;48.800;9.540;2023-02-12T01:10:10;6.80;99.90
17421;DHT22;8828;48.800;9.540;2023-02-12T01:12:38;6.80;99.90
17421;DHT22;8828;48.800;9.540;2023-02-12T01:15:07;6.80;99.90
17421;DHT22;8828;48.800;9.540;2023-02-12T01:17:36;6.80;99.90
17421;DHT22;8828;48.800;9.540;2023-02-12T01:20:05;6.70;99.90
17421;DHT22;8828;48.800;9.540;2023-02-12T01:22:34;6.70;99.90
17421;DHT22;8828;48.800;9.540;2023-02-12T01:25:03;6.70;99.90
17421;DHT22;8828;48.800;9.540;2023-02-12T01:27:32;6.70;99.90
17421;DHT22;8828;48.800;9.540;2023-02-12T01:30:00;6.70;99.90
17421;DHT22;8828;48.800;9.540;2023-02-12T01:32:28;6.70;99.90
17421;DHT22;8828;48.800;9.540;2023-02-12T01:34:56;6.70;99.90
17421;DHT22;8828;48.800;9.540;2023-02-12T01:37:24;6.70;99.90
17421;DHT22;8828;48.800;9.540;2023-02-12T01:39:52;6.70;99.90
17421;DHT22;8828;48.800;9.540;2023-02-12T01:42:20;6.70;99.90
17421;DHT22;8828;48.800;9.540;2023-02-12T01:47:51;6.70;99.90
17421;DHT22;8828;48.800;9.540;2023-02-12T01:50:19;6.70;99.90
17421;DHT22;8828;48.800;9.540;2023-02-12T01:52:52;6.60;99.90
17421;DHT22;8828;48.800;9.540;2023-02-12T01:55:20;6.60;99.90
17421;DHT22;8828;48.800;9.540;2023-02-12T01:57:49;6.60;99.90
17421;DHT22;8828;48.800;9.540;2023-02-12T02:02:50;6.70;99.90
17421;DHT22;8828;48.800;9.540;2023-02-12T02:05:23;6.70;99.90
17421;DHT22;8828;48.800;9.540;2023-02-12T02:07:54;6.60;99.90
17421;DHT22;8828;48.800;9.540;2023-02-12T02:10:22;6.60;99.90
17421;DHT22;8828;48.800;9.540;2023-02-12T02:12:50;6.60;99.90
17421;DHT22;8828;48.800;9.540;2023-02-12T02:15:36;6.60;99.90
17421;DHT22;8828;48.800;9.540;2023-02-12T02:18:11;6.60;99.90
17421;DHT22;8828;48.800;9.540;2023-02-12T02:20:53;6.60;99.90
17421;DHT22;8828;48.800;9.540;2023-02-12T02:23:43;6.60;99.90
17421;DHT22;8828;48.800;9.540;2023-02-12T02:26:35;6.50;99.90
17421;DHT22;8828;48.800;9.540;2023-02-12T02:29:37;6.50;99.90
17421;DHT22;8828;48.800;9.540;2023-02-12T02:32:12;6.60;99.90
17421;DHT22;8828;48.800;9.540;2023-02-12T02:34:48;6.60;99.90
17421;DHT22;8828;48.800;9.540;2023-02-12T02:37:18;6.60;99.90
17421;DHT22;8828;48.800;9.540;2023-02-12T02:39:52;6.50;99.90
17421;DHT22;8828;48.800;9.540;2023-02-12T02:42:26;6.50;99.90
17421;DHT22;8828;48.800;9.540;2023-02-12T02:44:59;6.50;99.90
17421;DHT22;8828;48.800;9.540;2023-02-12T02:47:34;6.40;99.90
17421;DHT22;8828;48.800;9.540;2023-02-12T02:50:08;6.40;99.90
17421;DHT22;8828;48.800;9.540;2023-02-12T02:52:40;6.40;99.90
17421;DHT22;8828;48.800;9.540;2023-02-12T02:55:12;6.40;99.90
17421;DHT22;8828;48.800;9.540;2023-02-12T02:57:45;6.50;99.90
17421;DHT22;8828;48.800;9.540;2023-02-12T03:00:17;6.50;99.90
17421;DHT22;8828;48.800;9.540;2023-02-12T03:02:51;6.50;99.90
17421;DHT22;8828;48.800;9.540;2023-02-12T03:05:24;6.50;99.90
17421;DHT22;8828;48.800;9.540;2023-02-12T03:07:58;6.50;99.90
17421;DHT22;8828;48.800;9.540;2023-02-12T03:10:29;6.50;99.90
17421;DHT22;8828;48.800;9.540;2023-02-12T03:13:01;6.50;99.90
17421;DHT22;8828;48.800;9.540;2023-02-12T03:15:34;6.50;99.90
17421;DHT22;8828;48.800;9.540;2023-02-12T03:18:10;6.50;99.90
17421;DHT22;8828;48.800;9.540;2023-02-12T03:20:42;6.50;99.90
17421;DHT22;8828;48.800;9.540;2023-02-12T03:23:15;6.50;99.90
17421;DHT22;8828;48.800;9.540;2023-02-12T03:25:48;6.50;99.90
17421;DHT22;8828;48.800;9.540;2023-02-12T03:28:22;6.50;99.90
17421;DHT22;8828;48.800;9.540;2023-02-12T03:30:58;6.50;99.90
17421;DHT22;8828;48.800;9.540;2023-02-12T03:33:36;6.50;99.90
17421;DHT22;8828;48.800;9.540;2023-02-12T03:36:14;6.50;99.90
17421;DHT22;8828;48.800;9.540;2023-02-12T03:38:45;6.40;99.90
17421;DHT22;8828;48.800;9.540;2023-02-12T03:41:19;6.50;99.90
17421;DHT22;8828;48.800;9.540;2023-02-12T03:43:52;6.50;99.90
17421;DHT22;8828;48.800;9.540;2023-02-12T03:46:26;6.50;99.90
17421;DHT22;8828;48.800;9.540;2023-02-12T03:49:02;6.40;99.90
17421;DHT22;8828;48.800;9.540;2023-02-12T03:51:34;6.40;99.90
17421;DHT22;8828;48.800;9.540;2023-02-12T03:54:04;6.40;99.90
17421;DHT22;8828;48.800;9.540;2023-02-12T03:56:37;6.40;99.90
17421;DHT22;8828;48.800;9.540;2023-02-12T03:59:07;6.40;99.90
17421;DHT22;8828;48.800;9.540;2023-02-12T04:01:35;6.40;99.90
17421;DHT22;8828;48.800;9.540;2023-02-12T04:04:06;6.50;99.90
17421;DHT22;8828;48.800;9.540;2023-02-12T04:06:35;6.40;99.90
17421;DHT22;8828;48.800;9.540;2023-02-12T04:09:06;6.50;99.90
17421;DHT22;8828;48.800;9.540;2023-02-12T04:11:45;6.50;99.90
17421;DHT22;8828;48.800;9.540;2023-02-12T04:14:21;6.50;99.90
17421;DHT22;8828;48.800;9.540;2023-02-12T04:16:59;6.50;99.90
17421;DHT22;8828;48.800;9.540;2023-02-12T04:19:42;6.50;99.90
17421;DHT22;8828;48.800;9.540;2023-02-12T04:22:26;6.50;99.90
17421;DHT22;8828;48.800;9.540;2023-02-12T04:25:07;6.50;99.90
17421;DHT22;8828;48.800;9.540;2023-02-12T04:27:41;6.40;99.90
17421;DHT22;8828;48.800;9.540;2023-02-12T04:30:19;6.40;99.90
17421;DHT22;8828;48.800;9.540;2023-02-12T04:32:50;6.40;99.90
17421;DHT22;8828;48.800;9.540;2023-02-12T04:35:23;6.40;99.90
17421;DHT22;8828;48.800;9.540;2023-02-12T04:37:56;6.40;99.90
17421;DHT22;8828;48.800;9.540;2023-02-12T04:40:26;6.30;99.90
17421;DHT22;8828;48.800;9.540;2023-02-12T04:42:54;6.30;99.90
17421;DHT22;8828;48.800;9.540;2023-02-12T04:45:24;6.30;99.90
17421;DHT22;8828;48.800;9.540;2023-02-12T04:47:53;6.40;99.90
17421;DHT22;8828;48.800;9.540;2023-02-12T04:50:23;6.30;99.90
17421;DHT22;8828;48.800;9.540;2023-02-12T04:52:51;6.30;99.90
17421;DHT22;8828;48.800;9.540;2023-02-12T04:55:19;6.30;99.90
17421;DHT22;8828;48.800;9.540;2023-02-12T04:57:47;6.30;99.90
17421;DHT22;8828;48.800;9.540;2023-02-12T05:00:16;6.40;99.90
17421;DHT22;8828;48.800;9.540;2023-02-12T05:02:44;6.30;99.90
17421;DHT22;8828;48.800;9.540;2023-02-12T05:05:12;6.30;99.90
17421;DHT22;8828;48.800;9.540;2023-02-12T05:07:41;6.30;99.90
17421;DHT22;8828;48.800;9.540;2023-02-12T05:10:09;6.30;99.90
17421;DHT22;8828;48.800;9.540;2023-02-12T05:12:37;6.30;99.90
17421;DHT22;8828;48.800;9.540;2023-02-12T05:15:06;6.20;99.90
17421;DHT22;8828;48.800;9.540;2023-02-12T05:17:34;6.30;99.90
17421;DHT22;8828;48.800;9.540;2023-02-12T05:20:02;6.30;99.90
17421;DHT22;8828;48.800;9.540;2023-02-12T05:22:30;6.20;99.90
17421;DHT22;8828;48.800;9.540;2023-02-12T05:24:59;6.20;99.90
17421;DHT22;8828;48.800;9.540;2023-02-12T05:27:27;6.20;99.90
17421;DHT22;8828;48.800;9.540;2023-02-12T05:29:55;6.20;99.90
17421;DHT22;8828;48.800;9.540;2023-02-12T05:32:23;6.20;99.90
17421;DHT22;8828;48.800;9.540;2023-02-12T05:34:51;6.20;99.90
17421;DHT22;8828;48.800;9.540;2023-02-12T05:37:19;6.20;99.90
17421;DHT22;8828;48.800;9.540;2023-02-12T05:39:48;6.20;99.90
17421;DHT22;8828;48.800;9.540;2023-02-12T05:42:17;6.20;99.90
17421;DHT22;8828;48.800;9.540;2023-02-12T05:44:45;6.20;99.90
17421;DHT22;8828;48.800;9.540;2023-02-12T05:47:13;6.10;99.90
17421;DHT22;8828;48.800;9.540;2023-02-12T05:49:41;6.10;99.90
17421;DHT22;8828;48.800;9.540;2023-02-12T05:52:09;6.00;99.90
17421;DHT22;8828;48.800;9.540;2023-02-12T05:54:37;6.10;99.90
17421;DHT22;8828;48.800;9.540;2023-02-12T05:57:06;6.10;99.90
17421;DHT22;8828;48.800;9.540;2023-02-12T05:59:35;6.10;99.90
17421;DHT22;8828;48.800;9.540;2023-02-12T06:02:03;6.00;99.90
17421;DHT22;8828;48.800;9.540;2023-02-12T06:04:30;6.00;99.90
17421;DHT22;8828;48.800;9.540;2023-02-12T06:06:59;6.00;99.90
17421;DHT22;8828;48.800;9.540;2023-02-12T06:09:27;6.00;99.90
17421;DHT22;8828;48.800;9.540;2023-02-12T06:11:55;6.00;99.90
17421;DHT22;8828;48.800;9.540;2023-02-12T06:14:23;6.00;99.90
17421;DHT22;8828;48.800;9.540;2023-02-12T06:16:52;6.00;99.90
17421;DHT22;8828;48.800;9.540;2023-02-12T06:19:20;6.00;99.90
17421;DHT22;8828;48.800;9.540;2023-02-12T06:21:49;6.00;99.90
17421;DHT22;8828;48.800;9.540;2023-02-12T06:24:17;6.10;99.90
17421;DHT22;8828;48.800;9.540;2023-02-12T06:26:48;6.10;99.90
17421;DHT22;8828;48.800;9.540;2023-02-12T06:29:17;6.10;99.90
17421;DHT22;8828;48.800;9.540;2023-02-12T06:31:45;6.10;99.90
17421;DHT22;8828;48.800;9.540;2023-02-12T06:34:15;6.10;99.90
17421;DHT22;8828;48.800;9.540;2023-02-12T06:36:44;6.10;99.90
17421;DHT22;8828;48.800;9.540;2023-02-12T06:39:14;6.10;99.90
17421;DHT22;8828;48.800;9.540;2023-02-12T06:41:42;6.00;99.90
17421;DHT22;8828;48.800;9.540;2023-02-12T06:44:11;6.00;99.90
17421;DHT22;8828;48.800;9.540;2023-02-12T06:46:39;6.00;99.90
17421;DHT22;8828;48.800;9.540;2023-02-12T06:49:09;6.00;99.90
17421;DHT22;8828;48.800;9.540;2023-02-12T06:51:40;6.00;99.90
17421;DHT22;8828;48.800;9.540;2023-02-12T06:54:11;6.00;99.90
17421;DHT22;8828;48.800;9.540;2023-02-12T06:56:39;6.00;99.90
17421;DHT22;8828;48.800;9.540;2023-02-12T06:59:12;6.00;99.90
17421;DHT22;8828;48.800;9.540;2023-02-12T07:01:41;6.10;99.90
17421;DHT22;8828;48.800;9.540;2023-02-12T07:04:10;6.10;99.90
17421;DHT22;8828;48.800;9.540;2023-02-12T07:06:39;6.10;99.90
17421;DHT22;8828;48.800;9.540;2023-02-12T07:09:07;6.10;99.90
17421;DHT22;8828;48.800;9.540;2023-02-12T07:11:35;6.10;99.90
17421;DHT22;8828;48.800;9.540;2023-02-12T07:14:04;6.10;99.90
17421;DHT22;8828;48.800;9.540;2023-02-12T07:16:34;6.20;99.90
17421;DHT22;8828;48.800;9.540;2023-02-12T07:19:02;6.20;99.90
17421;DHT22;8828;48.800;9.540;2023-02-12T07:21:30;6.20;99.90
17421;DHT22;8828;48.800;9.540;2023-02-12T07:23:59;6.20;99.90
17421;DHT22;8828;48.800;9.540;2023-02-12T07:26:27;6.20;99.90
17421;DHT22;8828;48.800;9.540;2023-02-12T07:28:56;6.30;99.90
17421;DHT22;8828;48.800;9.540;2023-02-12T07:31:25;6.30;99.90
17421;DHT22;8828;48.800;9.540;2023-02-12T07:33:54;6.30;99.90
17421;DHT22;8828;48.800;9.540;2023-02-12T07:36:23;6.30;99.90
17421;DHT22;8828;48.800;9.540;2023-02-12T07:38:52;6.30;99.90
17421;DHT22;8828;48.800;9.540;2023-02-12T07:41:23;6.30;99.90
17421;DHT22;8828;48.800;9.540;2023-02-12T07:43:54;6.30;99.90
17421;DHT22;8828;48.800;9.540;2023-02-12T07:46:23;6.40;99.90
17421;DHT22;8828;48.800;9.540;2023-02-12T07:48:56;6.40;99.90
17421;DHT22;8828;48.800;9.540;2023-02-12T07:51:25;6.40;99.90
17421;DHT22;8828;48.800;9.540;2023-02-12T07:53:53;6.50;99.90
17421;DHT22;8828;48.800;9.540;2023-02-12T07:56:24;6.50;99.90
17421;DHT22;8828;48.800;9.540;2023-02-12T07:58:55;6.50;99.90
17421;DHT22;8828;48.800;9.540;2023-02-12T08:01:27;6.60;99.90
17421;DHT22;8828;48.800;9.540;2023-02-12T08:03:58;6.60;99.90
17421;DHT22;8828;48.800;9.540;2023-02-12T08:06:52;6.60;99.90
17421;DHT22;8828;48.800;9.540;2023-02-12T08:09:22;6.70;99.90
17421;DHT22;8828;48.800;9.540;2023-02-12T08:11:52;6.70;99.90
17421;DHT22;8828;48.800;9.540;2023-02-12T08:14:20;6.70;99.90
17421;DHT22;8828;48.800;9.540;2023-02-12T08:16:49;6.70;99.90
17421;DHT22;8828;48.800;9.540;2023-02-12T08:19:17;6.80;99.90
17421;DHT22;8828;48.800;9.540;2023-02-12T08:21:52;6.80;99.90
17421;DHT22;8828;48.800;9.540;2023-02-12T08:24:20;6.90;99.90
17421;DHT22;8828;48.800;9.540;2023-02-12T08:26:49;7.00;99.90
17421;DHT22;8828;48.800;9.540;2023-02-12T08:29:20;7.00;99.90
17421;DHT22;8828;48.800;9.540;2023-02-12T08:31:54;7.00;99.90
17421;DHT22;8828;48.800;9.540;2023-02-12T08:34:24;7.10;99.90
17421;DHT22;8828;48.800;9.540;2023-02-12T08:36:53;7.20;99.90
17421;DHT22;8828;48.800;9.540;2023-02-12T08:39:22;7.20;99.90
17421;DHT22;8828;48.800;9.540;2023-02-12T08:41:50;7.30;99.90
17421;DHT22;8828;48.800;9.540;2023-02-12T08:44:22;7.30;99.90
17421;DHT22;8828;48.800;9.540;2023-02-12T08:46:51;7.30;99.90
17421;DHT22;8828;48.800;9.540;2023-02-12T08:49:23;7.30;99.90
17421;DHT22;8828;48.800;9.540;2023-02-12T08:51:53;7.40;99.90
17421;DHT22;8828;48.800;9.540;2023-02-12T08:54:23;7.40;99.90
17421;DHT22;8828;48.800;9.540;2023-02-12T08:56:54;7.50;99.90
17421;DHT22;8828;48.800;9.540;2023-02-12T08:59:23;7.70;99.90
17421;DHT22;8828;48.800;9.540;2023-02-12T09:01:52;7.80;99.90
17421;DHT22;8828;48.800;9.540;2023-02-12T09:04:21;7.90;99.90
17421;DHT22;8828;48.800;9.540;2023-02-12T09:06:50;8.00;99.90
17421;DHT22;8828;48.800;9.540;2023-02-12T09:09:19;8.00;99.90
17421;DHT22;8828;48.800;9.540;2023-02-12T09:11:47;8.10;99.90
17421;DHT22;8828;48.800;9.540;2023-02-12T09:14:17;8.20;99.90
17421;DHT22;8828;48.800;9.540;2023-02-12T09:16:51;8.30;99.90
17421;DHT22;8828;48.800;9.540;2023-02-12T09:19:19;8.40;99.90
17421;DHT22;8828;48.800;9.540;2023-02-12T09:21:50;8.50;99.90
17421;DHT22;8828;48.800;9.540;2023-02-12T09:24:21;8.60;99.90
17421;DHT22;8828;48.800;9.540;2023-02-12T09:26:49;8.80;99.90
17421;DHT22;8828;48.800;9.540;2023-02-12T09:29:17;8.90;99.90
17421;DHT22;8828;48.800;9.540;2023-02-12T09:31:45;9.00;99.90
17421;DHT22;8828;48.800;9.540;2023-02-12T09:34:15;9.10;99.90
17421;DHT22;8828;48.800;9.540;2023-02-12T09:36:43;9.20;99.90
17421;DHT22;8828;48.800;9.540;2023-02-12T09:39:11;9.20;99.90
17421;DHT22;8828;48.800;9.540;2023-02-12T09:42:03;9.20;99.90
17421;DHT22;8828;48.800;9.540;2023-02-12T09:44:41;9.30;99.90
17421;DHT22;8828;48.800;9.540;2023-02-12T09:47:16;9.40;99.90
17421;DHT22;8828;48.800;9.540;2023-02-12T09:50:08;9.50;99.90
17421;DHT22;8828;48.800;9.540;2023-02-12T09:52:37;9.60;99.90
17421;DHT22;8828;48.800;9.540;2023-02-12T09:55:10;9.70;99.90
17421;DHT22;8828;48.800;9.540;2023-02-12T09:57:41;9.80;99.90
17421;DHT22;8828;48.800;9.540;2023-02-12T10:00:24;10.00;99.90
17421;DHT22;8828;48.800;9.540;2023-02-12T10:02:54;10.20;99.90
17421;DHT22;8828;48.800;9.540;2023-02-12T10:05:26;10.40;99.90
17421;DHT22;8828;48.800;9.540;2023-02-12T10:08:10;10.40;99.90
17421;DHT22;8828;48.800;9.540;2023-02-12T10:10:48;10.50;99.90
17421;DHT22;8828;48.800;9.540;2023-02-12T10:13:32;10.50;99.90
17421;DHT22;8828;48.800;9.540;2023-02-12T10:16:09;10.50;99.90
17421;DHT22;8828;48.800;9.540;2023-02-12T10:18:52;10.40;99.90
17421;DHT22;8828;48.800;9.540;2023-02-12T10:21:37;10.30;99.90
17421;DHT22;8828;48.800;9.540;2023-02-12T10:24:22;10.20;99.90
17421;DHT22;8828;48.800;9.540;2023-02-12T10:26:56;10.20;99.90
17421;DHT22;8828;48.800;9.540;2023-02-12T10:29:27;10.20;99.90
17421;DHT22;8828;48.800;9.540;2023-02-12T10:32:00;10.20;99.90
17421;DHT22;8828;48.800;9.540;2023-02-12T10:34:32;10.20;99.90
17421;DHT22;8828;48.800;9.540;2023-02-12T10:37:07;10.20;99.90
17421;DHT22;8828;48.800;9.540;2023-02-12T10:39:40;10.20;99.90
17421;DHT22;8828;48.800;9.540;2023-02-12T10:42:11;10.20;99.90
17421;DHT22;8828;48.800;9.540;2023-02-12T10:44:41;10.20;99.90
17421;DHT22;8828;48.800;9.540;2023-02-12T10:47:14;10.20;99.90
17421;DHT22;8828;48.800;9.540;2023-02-12T10:49:55;10.20;99.90
17421;DHT22;8828;48.800;9.540;2023-02-12T10:52:33;10.20;99.90
17421;DHT22;8828;48.800;9.540;2023-02-12T10:55:11;10.10;99.90
17421;DHT22;8828;48.800;9.540;2023-02-12T10:57:49;10.10;99.90
17421;DHT22;8828;48.800;9.540;2023-02-12T11:00:24;10.10;99.90
17421;DHT22;8828;48.800;9.540;2023-02-12T11:03:01;10.00;99.90
17421;DHT22;8828;48.800;9.540;2023-02-12T11:05:31;10.00;99.90
17421;DHT22;8828;48.800;9.540;2023-02-12T11:08:03;10.00;99.90
17421;DHT22;8828;48.800;9.540;2023-02-12T11:10:36;10.00;99.90
17421;DHT22;8828;48.800;9.540;2023-02-12T11:13:05;10.00;99.90
17421;DHT22;8828;48.800;9.540;2023-02-12T11:15:46;10.00;99.90
17421;DHT22;8828;48.800;9.540;2023-02-12T11:18:21;10.00;99.90
17421;DHT22;8828;48.800;9.540;2023-02-12T11:20:53;10.10;99.90
17421;DHT22;8828;48.800;9.540;2023-02-12T11:23:26;10.10;99.90
17421;DHT22;8828;48.800;9.540;2023-02-12T11:25:57;10.10;99.90
17421;DHT22;8828;48.800;9.540;2023-02-12T11:28:26;10.10;99.90
17421;DHT22;8828;48.800;9.540;2023-02-12T11:30:58;10.10;99.90
17421;DHT22;8828;48.800;9.540;2023-02-12T11:33:34;10.20;99.90
17421;DHT22;8828;48.800;9.540;2023-02-12T11:36:11;10.20;99.90
17421;DHT22;8828;48.800;9.540;2023-02-12T11:38:50;10.30;99.90
17421;DHT22;8828;48.800;9.540;2023-02-12T11:41:25;10.40;99.90
17421;DHT22;8828;48.800;9.540;2023-02-12T11:43:54;10.50;99.90
17421;DHT22;8828;48.800;9.540;2023-02-12T11:46:24;10.60;99.90
17421;DHT22;8828;48.800;9.540;2023-02-12T11:49:00;10.60;99.90
17421;DHT22;8828;48.800;9.540;2023-02-12T11:51:30;10.60;99.90
17421;DHT22;8828;48.800;9.540;2023-02-12T11:54:02;10.60;99.90
17421;DHT22;8828;48.800;9.540;2023-02-12T11:56:44;10.60;99.90
17421;DHT22;8828;48.800;9.540;2023-02-12T11:59:26;10.60;99.90
17421;DHT22;8828;48.800;9.540;2023-02-12T12:01:58;10.70;99.90
17421;DHT22;8828;48.800;9.540;2023-02-12T12:04:29;10.70;99.90
17421;DHT22;8828;48.800;9.540;2023-02-12T12:07:01;10.70;99.90
17421;DHT22;8828;48.800;9.540;2023-02-12T12:09:36;10.70;99.90
17421;DHT22;8828;48.800;9.540;2023-02-12T12:12:11;10.60;99.90
17421;DHT22;8828;48.800;9.540;2023-02-12T12:14:43;10.60;99.90
17421;DHT22;8828;48.800;9.540;2023-02-12T12:17:39;10.80;99.90
17421;DHT22;8828;48.800;9.540;2023-02-12T12:20:28;10.90;99.90
17421;DHT22;8828;48.800;9.540;2023-02-12T12:23:02;11.20;99.90
17421;DHT22;8828;48.800;9.540;2023-02-12T12:25:36;11.40;99.90
17421;DHT22;8828;48.800;9.540;2023-02-12T12:28:26;11.50;99.90
17421;DHT22;8828;48.800;9.540;2023-02-12T12:31:07;11.50;99.90
17421;DHT22;8828;48.800;9.540;2023-02-12T12:33:39;11.70;99.90
17421;DHT22;8828;48.800;9.540;2023-02-12T12:39:31;12.90;99.90
17421;DHT22;8828;48.800;9.540;2023-02-12T12:45:18;13.00;99.90
17421;DHT22;8828;48.800;9.540;2023-02-12T12:48:04;12.90;99.90
17421;DHT22;8828;48.800;9.540;2023-02-12T12:50:45;13.00;99.90
17421;DHT22;8828;48.800;9.540;2023-02-12T12:53:33;12.90;99.90
17421;DHT22;8828;48.800;9.540;2023-02-12T12:56:26;12.90;99.90
17421;DHT22;8828;48.800;9.540;2023-02-12T12:59:30;12.70;99.90
17421;DHT22;8828;48.800;9.540;2023-02-12T13:05:22;12.40;99.90
17421;DHT22;8828;48.800;9.540;2023-02-12T13:07:58;12.30;99.90
17421;DHT22;8828;48.800;9.540;2023-02-12T13:10:33;12.20;99.90
17421;DHT22;8828;48.800;9.540;2023-02-12T13:13:12;12.20;99.90
17421;DHT22;8828;48.800;9.540;2023-02-12T13:15:51;12.30;99.90
17421;DHT22;8828;48.800;9.540;2023-02-12T13:18:29;12.30;99.90
17421;DHT22;8828;48.800;9.540;2023-02-12T13:21:03;12.30;99.90
17421;DHT22;8828;48.800;9.540;2023-02-12T13:23:38;12.50;99.90
17421;DHT22;8828;48.800;9.540;2023-02-12T13:26:13;12.80;99.90
17421;DHT22;8828;48.800;9.540;2023-02-12T13:28:46;13.00;99.90
17421;DHT22;8828;48.800;9.540;2023-02-12T13:31:20;13.10;99.90
17421;DHT22;8828;48.800;9.540;2023-02-12T13:34:01;13.00;99.90
17421;DHT22;8828;48.800;9.540;2023-02-12T13:36:32;12.90;99.90
17421;DHT22;8828;48.800;9.540;2023-02-12T13:39:07;12.90;99.90
17421;DHT22;8828;48.800;9.540;2023-02-12T13:41:38;13.10;99.90
17421;DHT22;8828;48.800;9.540;2023-02-12T13:44:15;13.30;99.90
17421;DHT22;8828;48.800;9.540;2023-02-12T13:46:55;13.60;99.90
17421;DHT22;8828;48.800;9.540;2023-02-12T13:49:34;13.80;99.90
17421;DHT22;8828;48.800;9.540;2023-02-12T13:52:09;14.00;99.90
17421;DHT22;8828;48.800;9.540;2023-02-12T13:54:49;14.10;99.90
17421;DHT22;8828;48.800;9.540;2023-02-12T13:57:20;14.20;99.90
17421;DHT22;8828;48.800;9.540;2023-02-12T13:59:49;14.30;99.90
17421;DHT22;8828;48.800;9.540;2023-02-12T14:05:19;14.50;99.90
17421;DHT22;8828;48.800;9.540;2023-02-12T14:07:51;14.50;99.90
17421;DHT22;8828;48.800;9.540;2023-02-12T14:10:22;14.60;99.90
17421;DHT22;8828;48.800;9.540;2023-02-12T14:12:53;14.60;99.90
17421;DHT22;8828;48.800;9.540;2023-02-12T14:15:31;14.60;99.90
17421;DHT22;8828;48.800;9.540;2023-02-12T14:18:25;14.60;99.90
17421;DHT22;8828;48.800;9.540;2023-02-12T14:27:26;14.40;99.90
17421;DHT22;8828;48.800;9.540;2023-02-12T14:33:15;14.20;99.90
17421;DHT22;8828;48.800;9.540;2023-02-12T14:35:48;14.10;99.90
17421;DHT22;8828;48.800;9.540;2023-02-12T14:39:04;14.00;99.90
17421;DHT22;8828;48.800;9.540;2023-02-12T14:41:34;13.90;99.90
17421;DHT22;8828;48.800;9.540;2023-02-12T14:44:46;13.80;99.90
17421;DHT22;8828;48.800;9.540;2023-02-12T14:47:50;13.60;99.90
17421;DHT22;8828;48.800;9.540;2023-02-12T14:50:25;13.50;99.90
17421;DHT22;8828;48.800;9.540;2023-02-12T14:53:04;13.40;99.90
17421;DHT22;8828;48.800;9.540;2023-02-12T14:55:34;13.20;99.90
17421;DHT22;8828;48.800;9.540;2023-02-12T14:58:04;13.10;99.90
17421;DHT22;8828;48.800;9.540;2023-02-12T15:00:35;13.00;99.90
17421;DHT22;8828;48.800;9.540;2023-02-12T15:03:16;12.90;99.90
17421;DHT22;8828;48.800;9.540;2023-02-12T15:05:49;12.80;99.90
17421;DHT22;8828;48.800;9.540;2023-02-12T15:08:27;12.70;99.90
17421;DHT22;8828;48.800;9.540;2023-02-12T15:11:05;12.60;99.90
17421;DHT22;8828;48.800;9.540;2023-02-12T15:13:45;12.50;99.90
17421;DHT22;8828;48.800;9.540;2023-02-12T15:16:21;12.40;99.90
17421;DHT22;8828;48.800;9.540;2023-02-12T15:18:53;12.20;99.90
17421;DHT22;8828;48.800;9.540;2023-02-12T15:21:24;12.00;99.90
17421;DHT22;8828;48.800;9.540;2023-02-12T15:24:08;11.90;99.90
17421;DHT22;8828;48.800;9.540;2023-02-12T15:26:43;11.80;99.90
17421;DHT22;8828;48.800;9.540;2023-02-12T15:29:20;11.70;99.90
17421;DHT22;8828;48.800;9.540;2023-02-12T15:31:53;11.50;99.90
17421;DHT22;8828;48.800;9.540;2023-02-12T15:34:24;11.40;99.90
17421;DHT22;8828;48.800;9.540;2023-02-12T15:36:58;11.30;99.90
17421;DHT22;8828;48.800;9.540;2023-02-12T15:39:40;11.30;99.90
17421;DHT22;8828;48.800;9.540;2023-02-12T15:42:27;11.20;99.90
17421;DHT22;8828;48.800;9.540;2023-02-12T15:45:17;11.10;99.90
17421;DHT22;8828;48.800;9.540;2023-02-12T15:47:56;11.00;99.90
17421;DHT22;8828;48.800;9.540;2023-02-12T15:50:26;10.90;99.90
17421;DHT22;8828;48.800;9.540;2023-02-12T15:52:54;10.80;99.90
17421;DHT22;8828;48.800;9.540;2023-02-12T15:55:26;10.70;99.90
17421;DHT22;8828;48.800;9.540;2023-02-12T15:57:57;10.70;99.90
17421;DHT22;8828;48.800;9.540;2023-02-12T16:00:29;10.60;99.90
17421;DHT22;8828;48.800;9.540;2023-02-12T16:02:58;10.50;99.90
17421;DHT22;8828;48.800;9.540;2023-02-12T16:05:26;10.40;99.90
17421;DHT22;8828;48.800;9.540;2023-02-12T16:07:54;10.30;99.90
17421;DHT22;8828;48.800;9.540;2023-02-12T16:10:24;10.30;99.90
17421;DHT22;8828;48.800;9.540;2023-02-12T16:12:53;10.20;99.90
17421;DHT22;8828;48.800;9.540;2023-02-12T16:15:24;10.20;99.90
17421;DHT22;8828;48.800;9.540;2023-02-12T16:17:52;10.10;99.90
17421;DHT22;8828;48.800;9.540;2023-02-12T16:20:25;10.10;99.90
17421;DHT22;8828;48.800;9.540;2023-02-12T16:22:54;10.10;99.90
17421;DHT22;8828;48.800;9.540;2023-02-12T16:25:26;10.00;99.90
17421;DHT22;8828;48.800;9.540;2023-02-12T16:28:00;9.90;99.90
17421;DHT22;8828;48.800;9.540;2023-02-12T16:30:30;9.90;99.90
17421;DHT22;8828;48.800;9.540;2023-02-12T16:33:00;9.80;99.90
17421;DHT22;8828;48.800;9.540;2023-02-12T16:35:30;9.80;99.90
17421;DHT22;8828;48.800;9.540;2023-02-12T16:38:01;9.80;99.90
17421;DHT22;8828;48.800;9.540;2023-02-12T16:40:34;9.60;99.90
17421;DHT22;8828;48.800;9.540;2023-02-12T16:43:13;9.60;99.90
17421;DHT22;8828;48.800;9.540;2023-02-12T16:45:49;9.50;99.90
17421;DHT22;8828;48.800;9.540;2023-02-12T16:48:20;9.30;99.90
17421;DHT22;8828;48.800;9.540;2023-02-12T16:50:55;9.30;99.90
17421;DHT22;8828;48.800;9.540;2023-02-12T16:53:38;9.20;99.90
17421;DHT22;8828;48.800;9.540;2023-02-12T16:56:14;9.10;99.90
17421;DHT22;8828;48.800;9.540;2023-02-12T16:58:45;9.00;99.90
17421;DHT22;8828;48.800;9.540;2023-02-12T17:01:16;8.90;99.90